createdAt,value
2022-07-31T00:01:16.859Z,5.80
2022-07-31T00:03:43.488Z,5.30
2022-07-31T00:06:11.935Z,5.70
2022-07-31T00:08:38.296Z,6.10
2022-07-31T00:11:04.700Z,6.10
2022-07-31T00:13:57.952Z,7.00
2022-07-31T00:16:18.986Z,6.20
2022-07-31T00:18:45.468Z,7.90
2022-07-31T00:21:15.080Z,6.10
2022-07-31T00:23:42.887Z,7.60
2022-07-31T00:26:11.175Z,6.00
2022-07-31T00:28:38.211Z,5.90
2022-07-31T00:31:04.630Z,8.90
2022-07-31T00:33:34.402Z,6.50
2022-07-31T00:36:01.216Z,7.10
2022-07-31T00:38:28.152Z,6.70
2022-07-31T00:40:56.567Z,6.10
2022-07-31T00:43:27.456Z,6.90
2022-07-31T00:45:59.388Z,6.10
2022-07-31T00:48:27.735Z,6.90
2022-07-31T00:50:57.289Z,7.30
2022-07-31T00:53:24.047Z,7.20
2022-07-31T00:55:56.945Z,5.80
2022-07-31T00:58:35.483Z,6.60
2022-07-31T01:01:05.302Z,5.90
2022-07-31T01:03:35.174Z,6.10
2022-07-31T01:06:05.344Z,5.60
2022-07-31T01:08:33.355Z,7.30
2022-07-31T01:11:21.126Z,8.00
2022-07-31T01:13:53.909Z,7.40
2022-07-31T01:16:24.061Z,6.90
2022-07-31T01:18:55.321Z,5.30
2022-07-31T01:22:33.322Z,5.60
2022-07-31T01:25:09.135Z,5.60
2022-07-31T01:27:58.159Z,6.10
2022-07-31T01:31:05.003Z,5.90
2022-07-31T01:33:46.212Z,5.60
2022-07-31T01:36:24.374Z,8.30
2022-07-31T01:38:55.215Z,7.20
2022-07-31T01:41:28.308Z,5.90
2022-07-31T01:43:57.709Z,7.00
2022-07-31T01:46:27.278Z,5.80
2022-07-31T01:48:55.822Z,6.00
2022-07-31T01:51:26.997Z,6.90
2022-07-31T01:53:55.236Z,6.90
2022-07-31T01:56:24.004Z,7.00
2022-07-31T01:58:51.948Z,6.70
2022-07-31T02:01:39.786Z,5.70
2022-07-31T02:04:10.456Z,5.60
2022-07-31T02:06:40.422Z,7.80
2022-07-31T02:09:08.154Z,5.30
2022-07-31T02:11:35.724Z,5.90
2022-07-31T02:14:21.145Z,7.30
2022-07-31T02:16:49.464Z,6.30
2022-07-31T02:19:23.473Z,6.00
2022-07-31T02:21:50.060Z,5.50
2022-07-31T02:24:17.161Z,5.80
2022-07-31T02:26:46.167Z,6.20
2022-07-31T02:29:19.431Z,5.80
2022-07-31T02:32:03.062Z,5.90
2022-07-31T02:34:34.323Z,7.40
2022-07-31T02:37:02.553Z,8.40
2022-07-31T02:39:40.259Z,7.00
2022-07-31T02:42:20.922Z,6.90
2022-07-31T02:44:48.465Z,7.20
2022-07-31T02:47:15.740Z,8.70
2022-07-31T02:49:44.779Z,8.30
2022-07-31T02:52:12.561Z,5.80
2022-07-31T02:54:40.683Z,7.20
2022-07-31T02:57:09.259Z,6.50
2022-07-31T02:59:40.727Z,5.50
2022-07-31T03:02:07.656Z,5.70
2022-07-31T03:04:39.156Z,9.10
2022-07-31T03:07:05.632Z,4.90
2022-07-31T03:09:33.072Z,8.00
2022-07-31T03:12:25.741Z,8.70
2022-07-31T03:14:53.985Z,6.50
2022-07-31T03:17:22.893Z,7.20
2022-07-31T03:20:08.798Z,7.80
2022-07-31T03:22:39.171Z,11.40
2022-07-31T03:25:08.068Z,7.50
2022-07-31T03:27:35.045Z,7.50
2022-07-31T03:30:02.309Z,8.40
2022-07-31T03:32:29.960Z,8.20
2022-07-31T03:34:57.202Z,6.70
2022-07-31T03:37:23.588Z,7.80
2022-07-31T03:39:50.352Z,8.30
2022-07-31T03:42:19.254Z,6.40
2022-07-31T03:44:47.661Z,6.30
2022-07-31T03:47:16.499Z,6.30
2022-07-31T03:49:44.179Z,9.20
2022-07-31T03:52:12.501Z,6.10
2022-07-31T03:54:42.069Z,6.90
2022-07-31T03:57:19.354Z,5.80
2022-07-31T03:59:50.214Z,5.40
2022-07-31T04:02:17.929Z,6.20
2022-07-31T04:04:49.932Z,14.60
2022-07-31T04:07:16.614Z,6.90
2022-07-31T04:09:50.087Z,5.50
2022-07-31T04:12:20.619Z,7.50
2022-07-31T04:14:47.972Z,7.80
2022-07-31T04:17:14.626Z,5.70
2022-07-31T04:19:44.060Z,5.00
2022-07-31T04:22:10.840Z,7.70
2022-07-31T04:24:38.190Z,7.50
2022-07-31T04:27:47.847Z,5.40
2022-07-31T04:30:17.656Z,5.90
2022-07-31T04:32:44.768Z,4.90
2022-07-31T04:35:14.613Z,5.00
2022-07-31T04:37:41.085Z,4.50
2022-07-31T04:40:16.577Z,7.60
2022-07-31T04:42:43.916Z,8.10
2022-07-31T04:45:10.371Z,9.30
2022-07-31T04:47:37.651Z,7.30
2022-07-31T04:50:07.449Z,7.50
2022-07-31T04:52:34.498Z,5.80
2022-07-31T04:55:08.261Z,7.60
2022-07-31T04:57:34.976Z,12.10
2022-07-31T05:00:01.758Z,9.40
2022-07-31T05:02:31.928Z,12.60
2022-07-31T05:04:58.417Z,13.10
2022-07-31T05:07:31.285Z,13.50
2022-07-31T05:10:00.884Z,13.10
2022-07-31T05:12:28.107Z,13.20
2022-07-31T05:14:55.510Z,13.10
2022-07-31T05:17:22.431Z,17.10
2022-07-31T05:20:13.357Z,14.10
2022-07-31T05:22:57.105Z,14.90
2022-07-31T05:25:39.765Z,16.80
2022-07-31T05:28:09.787Z,16.50
2022-07-31T05:30:36.546Z,15.50
2022-07-31T05:33:04.801Z,12.50
2022-07-31T05:35:31.262Z,15.20
2022-07-31T05:37:57.768Z,13.20
2022-07-31T05:40:40.217Z,11.00
2022-07-31T05:43:25.293Z,11.40
2022-07-31T05:46:16.764Z,9.60
2022-07-31T05:48:44.356Z,11.70
2022-07-31T05:51:12.662Z,11.20
2022-07-31T05:53:40.403Z,10.20
2022-07-31T05:56:30.515Z,7.10
2022-07-31T05:58:59.748Z,7.10
2022-07-31T06:01:26.191Z,6.80
2022-07-31T06:03:53.331Z,6.00
2022-07-31T06:06:24.222Z,7.30
2022-07-31T06:08:50.770Z,8.00
2022-07-31T06:11:23.191Z,7.80
2022-07-31T06:13:54.923Z,4.30
2022-07-31T06:18:54.847Z,4.40
2022-07-31T06:23:48.366Z,3.40
2022-07-31T06:26:22.286Z,6.10
2022-07-31T06:28:52.494Z,6.10
2022-07-31T06:31:20.738Z,5.40
2022-07-31T06:33:48.861Z,5.10
2022-07-31T06:36:17.608Z,3.90
2022-07-31T06:38:56.882Z,5.40
2022-07-31T06:41:46.050Z,3.40
2022-07-31T06:44:28.817Z,2.80
2022-07-31T06:47:30.659Z,2.90
2022-07-31T06:50:16.035Z,4.90
2022-07-31T06:52:52.503Z,3.50
2022-07-31T06:55:20.828Z,3.50
2022-07-31T06:57:47.710Z,6.60
2022-07-31T07:00:20.382Z,4.50
2022-07-31T07:02:48.238Z,3.10
2022-07-31T07:05:15.596Z,4.10
2022-07-31T07:07:42.253Z,5.30
2022-07-31T07:10:09.964Z,4.30
2022-07-31T07:13:02.386Z,3.10
2022-07-31T07:15:37.925Z,4.40
2022-07-31T07:18:06.574Z,4.00
2022-07-31T07:20:36.725Z,4.10
2022-07-31T07:23:03.377Z,4.50
2022-07-31T07:25:47.160Z,4.20
2022-07-31T07:28:30.960Z,4.80
2022-07-31T07:31:03.212Z,3.10
2022-07-31T07:33:41.584Z,3.70
2022-07-31T07:36:22.300Z,4.00
2022-07-31T07:38:55.618Z,6.00
2022-07-31T07:41:25.977Z,3.60
2022-07-31T07:43:53.127Z,7.70
2022-07-31T07:46:23.757Z,4.80
2022-07-31T07:48:53.409Z,7.40
2022-07-31T07:51:34.453Z,6.60
2022-07-31T07:54:15.108Z,4.70
2022-07-31T07:57:21.148Z,5.80
2022-07-31T08:00:10.271Z,4.30
2022-07-31T08:03:46.600Z,5.00
2022-07-31T08:05:40.375Z,6.30
2022-07-31T08:08:06.956Z,5.20
2022-07-31T08:10:48.559Z,7.30
2022-07-31T08:13:21.582Z,3.00
2022-07-31T08:15:53.986Z,3.70
2022-07-31T08:18:27.311Z,4.30
2022-07-31T08:20:55.507Z,3.50
2022-07-31T08:23:22.045Z,2.80
2022-07-31T08:25:49.368Z,3.20
2022-07-31T08:28:23.951Z,3.90
2022-07-31T08:30:51.263Z,2.60
2022-07-31T08:33:20.214Z,2.90
2022-07-31T08:35:54.100Z,2.50
2022-07-31T08:38:20.798Z,3.50
2022-07-31T08:41:02.906Z,3.00
2022-07-31T08:44:02.807Z,2.10
2022-07-31T08:46:19.262Z,5.20
2022-07-31T08:48:49.921Z,3.60
2022-07-31T08:51:17.873Z,4.20
2022-07-31T08:54:08.388Z,2.50
2022-07-31T08:56:36.058Z,5.40
2022-07-31T08:59:04.704Z,3.60
2022-07-31T09:01:36.472Z,4.00
2022-07-31T09:04:04.815Z,2.20
2022-07-31T09:06:32.091Z,2.50
2022-07-31T09:08:58.646Z,4.10
2022-07-31T09:11:25.158Z,2.90
2022-07-31T09:14:03.017Z,2.30
2022-07-31T09:16:49.713Z,4.70
2022-07-31T09:19:53.461Z,2.00
2022-07-31T09:22:26.409Z,2.30
2022-07-31T09:24:54.238Z,7.30
2022-07-31T09:27:27.954Z,2.60
2022-07-31T09:29:56.967Z,2.60
2022-07-31T09:32:35.297Z,3.00
2022-07-31T09:35:12.272Z,4.10
2022-07-31T09:37:39.629Z,5.50
2022-07-31T09:40:34.224Z,2.90
2022-07-31T09:43:04.284Z,2.20
2022-07-31T09:45:33.057Z,2.10
2022-07-31T09:48:12.540Z,3.80
2022-07-31T09:50:59.068Z,3.40
2022-07-31T09:53:43.005Z,5.60
2022-07-31T09:56:31.753Z,2.80
2022-07-31T09:58:58.689Z,3.30
2022-07-31T10:01:26.168Z,3.10
2022-07-31T10:03:59.309Z,2.90
2022-07-31T10:08:56.145Z,2.30
2022-07-31T10:11:27.393Z,2.20
2022-07-31T10:14:16.070Z,3.70
2022-07-31T10:16:48.500Z,2.40
2022-07-31T10:19:37.483Z,2.00
2022-07-31T10:22:30.144Z,3.60
2022-07-31T10:25:00.817Z,2.30
2022-07-31T10:27:29.307Z,4.70
2022-07-31T10:30:07.145Z,3.10
2022-07-31T10:35:22.534Z,2.60
2022-07-31T10:38:18.871Z,1.60
2022-07-31T10:41:17.249Z,2.80
2022-07-31T10:43:50.073Z,1.80
2022-07-31T10:46:36.332Z,1.70
2022-07-31T10:49:40.712Z,4.40
2022-07-31T10:52:27.191Z,1.90
2022-07-31T10:55:01.786Z,5.20
2022-07-31T10:57:56.203Z,4.30
2022-07-31T11:00:43.305Z,3.40
2022-07-31T11:03:21.305Z,1.90
2022-07-31T11:06:06.877Z,1.80
2022-07-31T11:08:54.216Z,5.50
2022-07-31T11:11:48.998Z,2.90
2022-07-31T11:14:39.088Z,1.60
2022-07-31T11:18:22.149Z,3.90
2022-07-31T11:20:42.698Z,3.10
2022-07-31T11:23:14.583Z,1.70
2022-07-31T11:25:41.410Z,2.30
2022-07-31T11:28:18.258Z,2.20
2022-07-31T11:30:52.825Z,2.70
2022-07-31T11:33:42.133Z,2.20
2022-07-31T11:36:15.393Z,3.10
2022-07-31T11:38:47.517Z,5.30
2022-07-31T11:41:16.587Z,2.40
2022-07-31T11:43:46.176Z,2.30
2022-07-31T11:46:18.666Z,2.30
2022-07-31T11:48:45.841Z,3.30
2022-07-31T11:51:19.702Z,2.40
2022-07-31T11:53:51.155Z,3.40
2022-07-31T11:56:26.699Z,3.30
2022-07-31T11:58:55.949Z,3.10
2022-07-31T12:01:28.609Z,4.70
2022-07-31T12:03:57.009Z,2.70
2022-07-31T12:06:23.857Z,2.20
2022-07-31T12:08:53.413Z,4.50
2022-07-31T12:11:20.826Z,3.70
2022-07-31T12:13:48.590Z,2.70
2022-07-31T12:16:15.896Z,3.20
2022-07-31T12:18:50.037Z,3.70
2022-07-31T12:21:17.733Z,4.60
2022-07-31T12:23:51.233Z,2.70
2022-07-31T12:26:26.488Z,2.50
2022-07-31T12:29:00.770Z,4.20
2022-07-31T12:31:28.425Z,3.60
2022-07-31T12:33:55.324Z,1.60
2022-07-31T12:36:21.817Z,3.50
2022-07-31T12:38:59.887Z,2.10
2022-07-31T12:41:27.900Z,2.10
2022-07-31T12:43:55.032Z,2.80
2022-07-31T12:46:37.161Z,1.40
2022-07-31T12:49:04.989Z,2.20
2022-07-31T12:51:45.206Z,2.10
2022-07-31T12:54:15.450Z,5.30
2022-07-31T12:56:43.004Z,1.50
2022-07-31T12:59:11.604Z,3.00
2022-07-31T13:01:38.598Z,4.60
2022-07-31T13:04:08.051Z,2.50
2022-07-31T13:06:48.153Z,1.90
2022-07-31T13:09:14.610Z,1.70
2022-07-31T13:11:46.495Z,1.50
2022-07-31T13:14:16.358Z,1.40
2022-07-31T13:16:44.465Z,2.40
2022-07-31T13:19:11.029Z,1.30
2022-07-31T13:21:49.347Z,1.50
2022-07-31T13:24:19.095Z,2.80
2022-07-31T13:26:46.938Z,2.50
2022-07-31T13:29:13.555Z,2.30
2022-07-31T13:31:41.268Z,3.80
2022-07-31T13:34:07.785Z,4.20
2022-07-31T13:36:39.324Z,1.50
2022-07-31T13:39:07.364Z,3.80
2022-07-31T13:41:34.846Z,2.80
2022-07-31T13:44:03.002Z,1.30
2022-07-31T13:46:31.073Z,3.20
2022-07-31T13:48:58.903Z,1.80
2022-07-31T13:51:28.852Z,3.50
2022-07-31T13:53:56.187Z,2.40
2022-07-31T13:56:39.469Z,3.70
2022-07-31T13:59:13.151Z,4.20
2022-07-31T14:02:03.781Z,3.00
2022-07-31T14:04:32.475Z,2.50
2022-07-31T14:07:06.049Z,1.20
2022-07-31T14:09:34.187Z,2.60
2022-07-31T14:12:04.624Z,3.10
2022-07-31T14:14:31.673Z,1.60
2022-07-31T14:16:58.092Z,2.30
2022-07-31T14:19:24.528Z,1.50
2022-07-31T14:21:57.075Z,1.50
2022-07-31T14:24:25.495Z,4.10
2022-07-31T14:26:52.417Z,1.30
2022-07-31T14:29:19.402Z,1.70
2022-07-31T14:31:46.193Z,2.40
2022-07-31T14:34:12.604Z,1.50
2022-07-31T14:36:39.151Z,3.40
2022-07-31T14:39:05.617Z,1.30
2022-07-31T14:41:32.153Z,2.90
2022-07-31T14:43:59.208Z,2.30
2022-07-31T14:46:26.857Z,1.30
2022-07-31T14:48:53.269Z,1.40
2022-07-31T14:51:19.821Z,2.30
2022-07-31T14:53:49.265Z,2.30
2022-07-31T14:56:23.424Z,3.90
2022-07-31T14:59:01.157Z,2.80
2022-07-31T15:01:30.681Z,1.50
2022-07-31T15:03:57.956Z,2.50
2022-07-31T15:06:41.630Z,1.30
2022-07-31T15:09:12.757Z,1.60
2022-07-31T15:11:59.365Z,1.70
2022-07-31T15:14:29.521Z,1.40
2022-07-31T15:16:56.665Z,1.10
2022-07-31T15:19:23.241Z,1.90
2022-07-31T15:22:10.990Z,2.30
2022-07-31T15:24:38.514Z,1.10
2022-07-31T15:27:08.047Z,3.60
2022-07-31T15:30:05.159Z,1.30
2022-07-31T15:32:22.189Z,1.40
2022-07-31T15:34:48.539Z,1.20
2022-07-31T15:37:19.891Z,1.80
2022-07-31T15:40:01.594Z,1.30
2022-07-31T15:42:31.602Z,4.00
2022-07-31T15:44:58.101Z,1.60
2022-07-31T15:47:24.707Z,2.40
2022-07-31T15:49:51.232Z,1.90
2022-07-31T15:52:19.407Z,2.20
2022-07-31T15:54:46.623Z,3.80
2022-07-31T15:57:13.307Z,2.00
2022-07-31T15:59:39.696Z,1.40
2022-07-31T16:02:06.311Z,1.10
2022-07-31T16:04:34.131Z,1.60
2022-07-31T16:08:29.178Z,1.60
2022-07-31T16:10:02.682Z,2.20
2022-07-31T16:12:34.619Z,2.50
2022-07-31T16:15:01.841Z,1.70
2022-07-31T16:17:37.184Z,2.80
2022-07-31T16:20:12.415Z,1.50
2022-07-31T16:22:40.606Z,3.10
2022-07-31T16:25:09.400Z,1.60
2022-07-31T16:27:38.496Z,1.30
2022-07-31T16:30:06.815Z,3.00
2022-07-31T16:32:33.519Z,1.20
2022-07-31T16:35:01.526Z,1.40
2022-07-31T16:37:50.361Z,3.00
2022-07-31T16:40:29.808Z,1.90
2022-07-31T16:43:00.971Z,4.50
2022-07-31T16:45:29.386Z,1.80
2022-07-31T16:47:56.558Z,1.40
2022-07-31T16:50:23.396Z,1.60
2022-07-31T16:52:54.175Z,1.40
2022-07-31T16:55:51.784Z,2.40
2022-07-31T16:58:10.892Z,1.80
2022-07-31T17:00:38.916Z,2.10
2022-07-31T17:03:05.825Z,1.50
2022-07-31T17:05:32.306Z,2.50
2022-07-31T17:07:58.921Z,2.30
2022-07-31T17:10:27.008Z,1.40
2022-07-31T17:12:54.007Z,2.30
2022-07-31T17:15:20.802Z,2.80
2022-07-31T17:17:47.541Z,3.80
2022-07-31T17:20:14.951Z,1.80
2022-07-31T17:22:41.792Z,3.80
2022-07-31T17:25:10.827Z,2.20
2022-07-31T17:27:40.004Z,5.30
2022-07-31T17:30:09.355Z,2.90
2022-07-31T17:32:38.883Z,2.50
2022-07-31T17:35:06.343Z,2.00
2022-07-31T17:37:32.740Z,5.30
2022-07-31T17:39:59.222Z,2.30
2022-07-31T17:42:27.957Z,3.20
2022-07-31T17:44:55.906Z,4.00
2022-07-31T17:47:25.295Z,1.80
2022-07-31T17:49:52.935Z,2.10
2022-07-31T17:52:20.374Z,4.00
2022-07-31T17:54:48.158Z,2.70
2022-07-31T17:57:14.854Z,2.20
2022-07-31T17:59:42.139Z,5.60
2022-07-31T18:02:09.528Z,6.50
2022-07-31T18:04:37.183Z,6.00
2022-07-31T18:07:05.834Z,6.70
2022-07-31T18:09:33.502Z,4.80
2022-07-31T18:12:01.231Z,4.80
2022-07-31T18:14:29.138Z,4.70
2022-07-31T18:16:55.610Z,3.00
2022-07-31T18:19:22.515Z,5.10
2022-07-31T18:21:50.601Z,4.00
2022-07-31T18:24:17.456Z,3.00
2022-07-31T18:26:43.981Z,4.10
2022-07-31T18:29:10.405Z,3.30
2022-07-31T18:31:37.465Z,4.00
2022-07-31T18:34:06.297Z,6.90
2022-07-31T18:36:33.857Z,4.70
2022-07-31T18:39:00.852Z,3.40
2022-07-31T18:41:27.380Z,4.50
2022-07-31T18:43:54.453Z,3.50
2022-07-31T18:46:23.003Z,4.40
2022-07-31T18:48:55.036Z,7.40
2022-07-31T18:51:23.917Z,7.20
2022-07-31T18:53:51.252Z,4.00
2022-07-31T18:56:17.850Z,4.60
2022-07-31T18:58:44.380Z,3.90
2022-07-31T19:01:11.280Z,3.60
2022-07-31T19:03:37.877Z,3.30
2022-07-31T19:06:05.577Z,3.80
2022-07-31T19:08:35.095Z,4.40
2022-07-31T19:11:02.587Z,4.10
2022-07-31T19:13:29.287Z,3.90
2022-07-31T19:15:56.200Z,3.60
2022-07-31T19:18:28.094Z,4.80
2022-07-31T19:21:19.123Z,4.00
2022-07-31T19:23:43.582Z,3.80
2022-07-31T19:26:11.273Z,3.60
2022-07-31T19:28:39.079Z,4.70
2022-07-31T19:31:06.564Z,4.00
2022-07-31T19:33:34.333Z,4.40
2022-07-31T19:36:03.232Z,7.40
2022-07-31T19:38:31.862Z,3.50
2022-07-31T19:40:59.061Z,3.70
2022-07-31T19:43:25.594Z,3.80
2022-07-31T19:45:58.777Z,3.80
2022-07-31T19:48:40.237Z,5.70
2022-07-31T19:51:06.862Z,4.50
2022-07-31T19:53:35.672Z,4.10
2022-07-31T19:56:04.874Z,5.70
2022-07-31T19:58:34.008Z,5.60
2022-07-31T20:01:00.951Z,4.40
2022-07-31T20:03:27.431Z,5.70
2022-07-31T20:05:55.842Z,3.90
2022-07-31T20:08:23.181Z,5.00
2022-07-31T20:10:50.037Z,4.20
2022-07-31T20:13:18.940Z,4.10
2022-07-31T20:15:52.442Z,4.20
2022-07-31T20:18:27.250Z,3.70
2022-07-31T20:21:06.393Z,4.60
2022-07-31T20:23:36.096Z,3.90
2022-07-31T20:26:08.527Z,4.30
2022-07-31T20:28:36.129Z,4.70
2022-07-31T20:31:02.856Z,6.30
2022-07-31T20:33:30.545Z,4.40
2022-07-31T20:35:58.379Z,7.10
2022-07-31T20:38:25.228Z,4.30
2022-07-31T20:40:55.461Z,4.40
2022-07-31T20:43:23.872Z,4.50
2022-07-31T20:45:50.916Z,5.50
2022-07-31T20:48:17.952Z,5.60
2022-07-31T20:50:48.028Z,4.60
2022-07-31T20:53:16.235Z,6.30
2022-07-31T20:55:48.498Z,4.50
2022-07-31T20:58:15.941Z,5.70
2022-07-31T21:00:43.172Z,4.80
2022-07-31T21:03:10.205Z,5.00
2022-07-31T21:05:38.677Z,5.10
2022-07-31T21:08:05.213Z,5.00
2022-07-31T21:10:34.353Z,4.70
2022-07-31T21:13:01.107Z,9.20
2022-07-31T21:15:44.095Z,5.30
2022-07-31T21:18:16.303Z,4.50
2022-07-31T21:20:52.177Z,4.80
2022-07-31T21:23:24.988Z,5.20
2022-07-31T21:25:53.759Z,5.50
2022-07-31T21:28:21.932Z,5.00
2022-07-31T21:30:49.529Z,6.00
2022-07-31T21:33:17.336Z,8.70
2022-07-31T21:35:44.401Z,6.10
2022-07-31T21:38:11.900Z,6.80
2022-07-31T21:40:39.689Z,4.70
2022-07-31T21:43:06.629Z,4.80
2022-07-31T21:45:43.413Z,5.20
2022-07-31T21:48:18.733Z,5.80
2022-07-31T21:50:45.741Z,5.70
2022-07-31T21:53:13.342Z,7.20
2022-07-31T21:55:40.623Z,4.50
2022-07-31T21:58:08.328Z,4.50
2022-07-31T22:00:35.397Z,4.90
2022-07-31T22:03:02.987Z,5.90
2022-07-31T22:05:51.379Z,4.90
2022-07-31T22:08:18.306Z,4.90
2022-07-31T22:10:45.240Z,6.00
2022-07-31T22:13:12.388Z,6.00
2022-07-31T22:15:58.228Z,5.70
2022-07-31T22:18:31.510Z,7.20
2022-07-31T22:20:59.466Z,7.50
2022-07-31T22:23:26.892Z,8.50
2022-07-31T22:25:53.866Z,8.00
2022-07-31T22:28:21.993Z,5.90
2022-07-31T22:30:48.969Z,5.80
2022-07-31T22:33:15.532Z,7.50
2022-07-31T22:35:43.327Z,6.50
2022-07-31T22:38:12.637Z,5.90
2022-07-31T22:40:39.767Z,6.90
2022-07-31T22:44:10.795Z,5.50
2022-07-31T22:45:59.112Z,6.00
2022-07-31T22:48:27.208Z,6.10
2022-07-31T22:50:54.823Z,6.40
2022-07-31T22:53:21.299Z,5.90
2022-07-31T22:55:47.807Z,5.70
2022-07-31T22:58:14.579Z,8.20
2022-07-31T23:00:41.875Z,5.20
2022-07-31T23:03:11.502Z,6.60
2022-07-31T23:06:02.872Z,6.20
2022-07-31T23:08:24.199Z,10.70
2022-07-31T23:10:51.030Z,12.40
2022-07-31T23:13:17.435Z,7.30
2022-07-31T23:15:44.206Z,7.20
2022-07-31T23:18:11.249Z,7.40
2022-07-31T23:20:38.794Z,6.70
2022-07-31T23:23:05.439Z,8.30
2022-07-31T23:25:32.827Z,6.90
2022-07-31T23:27:59.207Z,6.80
2022-07-31T23:30:26.995Z,7.70
2022-07-31T23:32:54.845Z,7.80
2022-07-31T23:35:21.607Z,7.40
2022-07-31T23:37:49.245Z,7.40
2022-07-31T23:40:15.804Z,6.70
2022-07-31T23:42:45.707Z,11.70
2022-07-31T23:45:15.330Z,8.10
2022-07-31T23:47:46.215Z,8.20
2022-07-31T23:50:14.701Z,7.60
2022-07-31T23:52:44.774Z,7.50
2022-07-31T23:55:11.674Z,8.40
2022-07-31T23:57:40.248Z,7.60
